Tioga Center, New York
Current Conditions -  °F | °C
As of 10:53 AM on Wednesday 28 Jan 2015 (Local Time) from KBGM Reporting Station
Clear Clear  
Wind Chill: -1°   Ceiling: Unl
Heat Index: 15°   Visibility: 10mi
Dew Point:   Wind: 16mph
Humidity: 59%   Direction: 330°NNW
Pressure: 30.09"   Gusts: 31mph
Location:  42.06°N, 76.35°W
Report Text: KBGM 281553Z 33014G27KT 10SM CLR M09/M16 A3009 RMK AO2 PK WND 33027/1544 SLP223 T10941161
Loading
Personal Weather Stations






























Interactive Weather Map New forecast layout! Learn more

10-Day Weather Forecast

Advertisements
Track Severe Weather on mobile